< < Back
Terminal Aerodrome Forecast


Current Version              Previous Versions:   1  2  3  4  5  6  7  8  9  

Terminal Aerodrome Forecast

639
FTUS42 KCAE 290800 AAA
TAFAGS
TAF AMD
KAGS 290839Z 2909/3006 34003KT P6SM SCT080=



Latest METAR

834
SAUS70 KWBC 290900 RRC
MTRAGS
METAR KAGS 290853Z AUTO 34005KT 10SM CLR 20/17 A2990 RMK AO2 SLP123
T02000167 53004


USA.gov is the U.S. government's official web portal to all federal, state and local government web resources and services.